DW8427 Weather Reports


Display with metric or nautical units.
time (UTC)temp
F
wind
direction
speed
MPH
gust
MPH
rain 1hr
in
rain 24hr
in
rain mn
in
humidity
%
barometer
mb
20240523121524 55 101 0.0 0.0 0.00 0.00 0.00 76 1010.5
20240523120033 55 101 0.0 0.0 0.00 0.00 0.00 75 1010.5
20240523114520 56 101 0.0 0.0 0.00 0.00 0.00 73 1010.6
20240523113017 56 101 0.0 0.0 0.00 0.00 0.00 73 1010.6
20240523111543 57 101 0.0 0.0 0.00 0.00 0.00 72 1010.6
20240523110014 57 100 0.0 0.0 0.00 0.00 0.00 72 1010.6
20240523104517 57 116 0.0 0.0 0.00 0.00 0.00 73 1010.7
20240523103028 57 116 0.0 0.0 0.00 0.00 0.00 73 1010.8
20240523101527 58 116 0.0 0.0 0.00 0.00 0.00 70 1010.7
20240523100007 58 136 0.0 0.0 0.00 0.00 0.00 70 1010.7
20240523094504 59 136 0.0 0.0 0.00 0.00 0.00 68 1010.5
20240523093002 59 130 0.0 0.0 0.00 0.00 0.00 66 1010.6
20240523091601 59 122 0.0 0.0 0.00 0.00 0.00 66 1010.7
20240523090105 60 153 0.0 0.0 0.00 0.00 0.00 66 1010.6
20240523084605 60 104 0.0 5.0 0.00 0.00 0.00 65 1010.4
20240523083054 61 134 0.0 0.0 0.00 0.00 0.00 65 1010.3
20240523081552 61 80 0.0 3.0 0.00 0.00 0.00 65 1010.4
20240523080050 61 129 1.0 3.0 0.00 0.00 0.00 65 1010.6
20240523074547 62 143 0.0 3.0 0.00 0.00 0.00 64 1010.4
20240523073045 62 132 0.0 4.0 0.00 0.00 0.00 64 1010.3
20240523071545 63 94 1.0 4.0 0.00 0.00 0.00 64 1010.4
20240523070055 63 117 1.0 5.0 0.00 0.00 0.00 63 1010.4
20240523064544 64 105 2.0 6.0 0.00 0.00 0.00 63 1010.4
20240523063048 64 124 0.0 6.0 0.00 0.00 0.00 63 1010.4
20240523061539 65 103 1.0 4.0 0.00 0.00 0.00 62 1010.5
20240523060042 66 87 2.0 7.0 0.00 0.00 0.00 61 1010.4
20240523054539 67 89 1.0 6.0 0.00 0.00 0.00 60 1010.4
20240523053038 68 110 3.0 7.0 0.00 0.00 0.00 58 1010.4
20240523051538 69 132 1.0 7.0 0.00 0.00 0.00 57 1010.2
20240523050045 70 87 0.0 8.0 0.00 0.00 0.00 55 1010.1
20240523044522 71 128 1.0 6.0 0.00 0.00 0.00 53 1009.9
20240523043023 72 126 1.0 4.0 0.00 0.00 0.00 52 1009.8
20240523041515 73 124 0.0 4.0 0.00 0.00 0.00 49 1009.6
20240523040018 74 115 0.0 3.0 0.00 0.00 0.00 48 1009.4
20240523034515 75 91 0.0 2.0 0.00 0.00 0.00 48 1009.4
20240523033013 76 122 0.0 2.0 0.00 0.00 0.00 48 1009.4
20240523031520 77 228 0.0 1.0 0.00 0.00 0.00 46 1009.4
20240523030012 78 60 0.0 2.0 0.00 0.00 0.00 45 1009.4
20240523024516 80 124 0.0 1.0 0.00 0.00 0.00 44 1009.4
20240523023010 81 219 0.0 4.0 0.00 0.00 0.00 42 1009.2
20240523021511 82 359 0.0 7.0 0.00 0.00 0.00 41 1009.2
20240523020008 85 212 0.0 0.0 0.00 0.00 0.00 32 1009.1
20240523014518 85 133 1.0 6.0 0.00 0.00 0.00 30 1008.9
20240523013007 87 103 0.0 0.0 0.00 0.00 0.00 28 1009.0
20240523011506 87 296 0.0 3.0 0.00 0.00 0.00 30 1009.1
20240523010004 86 262 0.0 10.0 0.00 0.00 0.00 30 1009.1
20240523004504 86 108 0.0 3.0 0.00 0.00 0.00 30 1009.3
20240523003020 86 45 0.0 3.0 0.00 0.00 0.00 31 1009.4
20240523001600 86 247 1.0 6.0 0.00 0.00 0.00 32 1009.4
20240523001512 86 108 2.0 6.0 0.00 0.00 0.00 31 1009.5
20240523000043 86 150 1.0 5.0 0.00 0.00 0.00 33 1009.5
20240522234529 84 144 1.0 6.0 0.00 0.00 0.00 34 1009.8
20240522233028 86 324 0.0 2.0 0.00 0.00 0.00 33 1009.9
20240522231525 85 237 0.0 3.0 0.00 0.00 0.00 35 1010.2
20240522230025 85 280 0.0 4.0 0.00 0.00 0.00 36 1010.2
20240522224524 85 309 0.0 5.0 0.00 0.00 0.00 35 1010.5
20240522223009 86 17 0.0 2.0 0.00 0.00 0.00 34 1010.6
20240522221503 85 117 0.0 3.0 0.00 0.00 0.00 35 1010.7
20240522220201 85 294 2.0 4.0 0.00 0.00 0.00 35 1010.9
20240522214613 86 240 0.0 5.0 0.00 0.00 0.00 35 1011.1
20240522213105 84 274 0.0 4.0 0.00 0.00 0.00 37 1011.2
20240522211554 84 93 0.0 3.0 0.00 0.00 0.00 37 1011.4
20240522210052 82 117 0.0 5.0 0.00 0.00 0.00 40 1011.5
20240522204555 82 18 1.0 6.0 0.00 0.00 0.00 40 1011.8
20240522203058 82 115 0.0 6.0 0.00 0.00 0.00 39 1011.8
20240522201547 80 86 1.0 5.0 0.00 0.00 0.00 40 1012.0
20240522200104 79 141 1.0 7.0 0.00 0.00 0.00 42 1012.0
20240522194545 78 73 0.0 9.0 0.00 0.00 0.00 42 1012.3
20240522193044 79 84 0.0 6.0 0.00 0.00 0.00 43 1012.5
20240522191543 77 269 2.0 6.0 0.00 0.00 0.00 43 1012.5
20240522190040 77 354 2.0 6.0 0.00 0.00 0.00 43 1012.7
20240522184547 76 5 1.0 7.0 0.00 0.00 0.00 41 1012.6
20240522183039 75 129 0.0 6.0 0.00 0.00 0.00 45 1012.5
20240522181535 74 144 1.0 8.0 0.00 0.00 0.00 45 1012.4
20240522180035 74 146 1.0 7.0 0.00 0.00 0.00 47 1012.3
20240522174531 73 134 4.0 12.0 0.00 0.00 0.00 47 1012.4
20240522173031 73 155 1.0 6.0 0.00 0.00 0.00 46 1012.5
20240522171528 72 122 2.0 7.0 0.00 0.00 0.00 47 1012.5
20240522170027 72 127 0.0 5.0 0.00 0.00 0.00 48 1012.6
20240522164544 71 165 0.0 4.0 0.00 0.00 0.00 50 1012.7
20240522163037 68 120 0.0 5.0 0.00 0.00 0.00 52 1012.8
20240522161519 68 136 1.0 4.0 0.00 0.00 0.00 53 1012.9
20240522160016 66 158 5.0 8.0 0.00 0.00 0.00 54 1012.8
20240522154515 66 106 2.0 6.0 0.00 0.00 0.00 55 1012.5
20240522153015 65 105 2.0 7.0 0.00 0.00 0.00 54 1012.6
20240522151514 64 139 2.0 6.0 0.00 0.00 0.00 56 1012.6
20240522150011 63 121 3.0 8.0 0.00 0.00 0.00 57 1012.5
20240522144510 61 119 0.0 0.0 0.00 0.00 0.00 59 1012.6
20240522143014 60 95 0.0 1.0 0.00 0.00 0.00 60 1012.3
20240522141506 60 143 2.0 4.0 0.00 0.00 0.00 60 1012.1
20240522140013 59 131 1.0 4.0 0.00 0.00 0.00 60 1011.8
20240522134505 59 155 0.0 3.0 0.00 0.00 0.00 60 1011.9
20240522133003 57 114 0.0 4.0 0.00 0.00 0.00 63 1011.8
20240522131605 56 114 0.0 0.0 0.00 0.00 0.00 67 1011.8
20240522130008 56 127 0.0 0.0 0.00 0.00 0.00 66 1011.5
20240522124603 56 127 0.0 0.0 0.00 0.00 0.00 66 1011.4
20240522123052 56 127 0.0 0.0 0.00 0.00 0.00 64 1011.3